Terminal Aerodrome Forecast
Issued by NWS

Home | Current Version | Previous Version | Text Only | Print | Product List | Glossary On
Versions: 1 2 3 4 5 6 7 8 9 10 11 12 13 14 15 16 17 18 19 20 21 22 23 24 25 26
000
FTPQ31 PGUM 290538
TAFGUM
TAF

TAF
PTRO 290538Z 2906/3006 25011KT P6SM VCSH SCT018 BKN120
      TEMPO 2906/2909 26010G20KT=

USA.gov is the U.S. government's official web portal to all federal, state and local government web resources and services.